Time;durP1;ratioP1;P1;durP2;ratioP2;P2;SDS_P1;SDS_P2;PMS_P1;PMS_P2;Temp;Humidity;BMP_temperature;BMP_pressure;BME280_temperature;BME280_humidity;BME280_pressure;Samples;Min_cycle;Max_cycle;Signal;HPM_P1;HPM_P2
2021/11/24 00:00:43;;;;;;;22.35;8.88;;;0.90;99.90;;;;;;5072647;28;20387;-80
2021/11/24 00:03:08;;;;;;;20.98;7.60;;;1.40;99.90;;;;;;5072659;28;20032;-80
2021/11/24 00:05:34;;;;;;;15.43;7.65;;;1.20;99.90;;;;;;5088146;28;20025;-80
2021/11/24 00:08:00;;;;;;;16.83;7.57;;;1.20;99.90;;;;;;5072526;28;20095;-80
2021/11/24 00:10:32;;;;;;;14.57;7.47;;;1.30;99.90;;;;;;5088108;28;20020;-80
2021/11/24 00:12:58;;;;;;;15.52;7.60;;;1.30;99.90;;;;;;5072861;28;20486;-80
2021/11/24 00:15:24;;;;;;;17.52;8.13;;;1.40;99.90;;;;;;5072551;28;20067;-80
2021/11/24 00:17:50;;;;;;;15.02;7.85;;;1.30;99.90;;;;;;5088076;28;20031;-80
2021/11/24 00:20:17;;;;;;;12.00;6.68;;;1.40;99.90;;;;;;5076288;28;20075;-80
2021/11/24 00:22:43;;;;;;;15.93;6.80;;;1.50;99.90;;;;;;5091863;28;20025;-80
2021/11/24 00:25:09;;;;;;;12.85;6.90;;;1.10;99.90;;;;;;5091862;28;20029;-80
2021/11/24 00:27:36;;;;;;;14.55;6.32;;;1.00;99.90;;;;;;5091738;28;20021;-80
2021/11/24 00:30:06;;;;;;;15.43;6.80;;;0.90;99.90;;;;;;5091778;28;20044;-80
2021/11/24 00:32:33;;;;;;;14.05;6.38;;;1.20;99.90;;;;;;5076155;28;20099;-80
2021/11/24 00:34:59;;;;;;;12.00;6.05;;;1.60;99.90;;;;;;5076363;28;20459;-80
2021/11/24 00:37:26;;;;;;;14.15;6.18;;;1.30;99.90;;;;;;5091558;28;20132;-80
2021/11/24 00:39:52;;;;;;;14.18;5.78;;;1.40;99.90;;;;;;5091943;28;20028;-80
2021/11/24 00:42:18;;;;;;;14.20;5.70;;;1.10;99.90;;;;;;5091523;28;20032;-80
2021/11/24 00:44:44;;;;;;;12.95;6.40;;;1.10;99.90;;;;;;5091525;28;20244;-80
2021/11/24 00:47:09;;;;;;;10.23;5.68;;;1.30;99.90;;;;;;5091262;28;20104;-80
2021/11/24 00:49:36;;;;;;;11.18;6.15;;;0.80;99.90;;;;;;5076321;28;20024;-80
2021/11/24 00:52:02;;;;;;;12.82;5.60;;;0.90;99.90;;;;;;5075740;28;20387;-80
2021/11/24 00:54:28;;;;;;;15.25;5.97;;;1.20;99.90;;;;;;5091382;28;20027;-80
2021/11/24 00:56:54;;;;;;;10.70;5.68;;;1.20;99.90;;;;;;5091475;28;20472;-80
2021/11/24 00:59:19;;;;;;;9.43;5.63;;;1.00;99.90;;;;;;5091194;28;20074;-80
2021/11/24 01:01:45;;;;;;;11.50;5.72;;;1.00;99.90;;;;;;5091218;28;20392;-80
2021/11/24 01:04:11;;;;;;;9.30;5.60;;;1.10;99.90;;;;;;5091184;28;20031;-80
2021/11/24 01:06:37;;;;;;;9.55;5.20;;;1.00;99.90;;;;;;5091059;28;20107;-80
2021/11/24 01:09:03;;;;;;;11.70;5.63;;;1.40;99.90;;;;;;5091142;28;20021;-80
2021/11/24 01:11:30;;;;;;;11.35;6.03;;;1.80;99.90;;;;;;5075424;28;20024;-80
2021/11/24 01:13:56;;;;;;;13.52;5.80;;;1.40;99.90;;;;;;5090983;28;20028;-80
2021/11/24 01:16:22;;;;;;;12.25;5.50;;;0.80;99.90;;;;;;5091203;28;20036;-80
2021/11/24 01:18:47;;;;;;;12.20;5.78;;;0.80;99.90;;;;;;5090888;28;20163;-80
2021/11/24 01:21:13;;;;;;;13.18;5.85;;;1.00;99.90;;;;;;5090872;28;20495;-80
2021/11/24 01:23:39;;;;;;;12.60;5.85;;;0.70;99.90;;;;;;5090756;28;20054;-80
2021/11/24 01:26:05;;;;;;;9.45;5.13;;;0.40;99.90;;;;;;5090683;28;20487;-79
2021/11/24 01:28:31;;;;;;;13.43;6.07;;;0.70;99.90;;;;;;5075196;28;20017;-80
2021/11/24 01:30:57;;;;;;;12.57;5.75;;;0.70;99.90;;;;;;5090251;28;20028;-80
2021/11/24 01:33:23;;;;;;;10.25;5.45;;;0.80;99.90;;;;;;5090575;28;20036;-80
2021/11/24 01:35:49;;;;;;;15.13;5.85;;;0.90;99.90;;;;;;5078229;28;20048;-80
2021/11/24 01:38:14;;;;;;;8.45;4.53;;;0.90;99.90;;;;;;5095144;28;20020;-79
2021/11/24 01:40:40;;;;;;;11.07;5.13;;;0.90;99.90;;;;;;5076889;28;20017;-80
2021/11/24 01:43:08;;;;;;;10.35;4.55;;;1.00;99.90;;;;;;5095061;28;20051;-80
2021/11/24 01:45:36;;;;;;;8.48;4.57;;;0.90;99.90;;;;;;5076873;28;20111;-80
2021/11/24 01:48:02;;;;;;;9.93;4.72;;;1.10;99.90;;;;;;5076629;28;20036;-80
2021/11/24 01:50:28;;;;;;;8.45;4.88;;;1.20;99.90;;;;;;5076786;28;20043;-79
2021/11/24 01:52:54;;;;;;;8.25;4.80;;;1.00;99.90;;;;;;5076649;28;20028;-80
2021/11/24 01:55:20;;;;;;;7.78;4.47;;;1.40;99.90;;;;;;5094818;28;20095;-80
2021/11/24 01:57:49;;;;;;;8.85;4.65;;;1.70;99.90;;;;;;5076576;28;20120;-79
2021/11/24 02:00:36;;;;;;;9.48;4.78;;;1.60;99.90;;;;;;5076502;28;20506;-80
2021/11/24 02:03:03;;;;;;;8.48;4.90;;;1.30;99.90;;;;;;5076492;28;20118;-80
2021/11/24 02:05:29;;;;;;;13.40;5.03;;;1.20;99.90;;;;;;5094635;28;20024;-80
2021/11/24 02:07:55;;;;;;;12.93;4.78;;;1.30;99.90;;;;;;5076275;28;20034;-80
2021/11/24 02:10:22;;;;;;;10.27;5.18;;;0.60;99.90;;;;;;5076296;28;20024;-79
2021/11/24 02:12:49;;;;;;;8.15;4.55;;;0.80;99.90;;;;;;5076211;28;20027;-80
2021/11/24 02:15:30;;;;;;;9.25;4.93;;;0.80;99.90;;;;;;5076227;28;20078;-79
2021/11/24 02:18:01;;;;;;;11.63;5.00;;;0.90;99.90;;;;;;5076211;28;20032;-79
2021/11/24 02:20:36;;;;;;;8.57;4.25;;;1.00;99.90;;;;;;5076164;28;20030;-79
2021/11/24 02:23:04;;;;;;;10.30;4.88;;;1.60;99.90;;;;;;5076013;28;20520;-79
2021/11/24 02:25:30;;;;;;;12.57;4.75;;;1.00;99.90;;;;;;5094182;28;20024;-79
2021/11/24 02:27:55;;;;;;;11.27;4.93;;;0.70;99.90;;;;;;5094114;28;20024;-79
2021/11/24 02:30:21;;;;;;;7.68;4.75;;;0.80;99.90;;;;;;5094123;28;20016;-79
2021/11/24 02:32:47;;;;;;;9.15;4.93;;;0.90;99.90;;;;;;5075825;28;20119;-79
2021/11/24 02:35:13;;;;;;;8.32;4.53;;;1.20;99.90;;;;;;5075787;28;20494;-79
2021/11/24 02:37:38;;;;;;;8.10;4.35;;;0.90;99.90;;;;;;5093900;28;20115;-79
2021/11/24 02:40:05;;;;;;;7.53;4.38;;;0.90;99.90;;;;;;5076458;28;20028;-79
2021/11/24 02:42:31;;;;;;;9.93;3.92;;;0.70;99.90;;;;;;5075017;28;20433;-79
2021/11/24 02:44:56;;;;;;;9.40;3.97;;;1.20;99.90;;;;;;5075707;28;20020;-79
2021/11/24 02:47:25;;;;;;;11.50;5.70;;;1.20;99.90;;;;;;5093715;28;20028;-79
2021/11/24 02:49:53;;;;;;;9.75;5.15;;;0.70;99.90;;;;;;5075635;28;20016;-79
2021/11/24 02:52:21;;;;;;;10.93;4.53;;;0.50;99.90;;;;;;5075558;28;20023;-79
2021/11/24 02:54:55;;;;;;;8.38;4.20;;;0.50;99.90;;;;;;5075446;28;20051;-79
2021/11/24 02:57:39;;;;;;;;;;;1.00;99.90;;;;;;5094389;28;20416;-79
2021/11/24 03:00:12;;;;;;;8.05;4.20;;;0.80;99.90;;;;;;5093882;28;19904;-79
2021/11/24 03:02:38;;;;;;;7.30;4.55;;;0.50;99.90;;;;;;5075436;28;20035;-79
2021/11/24 03:05:04;;;;;;;8.52;4.80;;;0.50;99.90;;;;;;5075331;28;20403;-79
2021/11/24 03:07:29;;;;;;;9.48;4.78;;;0.40;99.90;;;;;;5093478;28;20020;-79
2021/11/24 03:09:55;;;;;;;15.30;5.93;;;0.50;99.90;;;;;;5093549;28;20023;-79
2021/11/24 03:12:21;;;;;;;8.77;4.75;;;0.60;99.90;;;;;;5093743;28;20463;-79
2021/11/24 03:14:47;;;;;;;7.28;4.05;;;0.40;99.90;;;;;;5093342;28;20081;-79
2021/11/24 03:17:13;;;;;;;9.27;4.30;;;0.50;99.90;;;;;;5093656;28;20511;-79
2021/11/24 03:19:39;;;;;;;7.35;4.25;;;0.20;99.90;;;;;;5093335;28;20062;-79
2021/11/24 03:22:05;;;;;;;6.97;4.15;;;0.40;99.90;;;;;;5093309;28;20032;-79
2021/11/24 03:24:31;;;;;;;8.63;4.20;;;0.50;99.90;;;;;;5075088;28;20428;-80
2021/11/24 03:26:57;;;;;;;7.53;4.03;;;0.70;99.90;;;;;;5093406;28;20030;-80
2021/11/24 03:29:23;;;;;;;9.23;4.20;;;1.10;99.90;;;;;;5075086;28;20046;-79
2021/11/24 03:31:48;;;;;;;7.22;4.20;;;1.20;99.90;;;;;;5075301;28;20077;-79
2021/11/24 03:34:14;;;;;;;7.55;3.90;;;0.80;99.90;;;;;;5074907;28;20024;-79
2021/11/24 03:36:40;;;;;;;9.30;4.60;;;0.50;99.90;;;;;;5092884;28;20127;-79
2021/11/24 03:39:06;;;;;;;10.25;3.95;;;0.40;99.90;;;;;;5074943;28;20475;-79
2021/11/24 03:41:32;;;;;;;8.90;4.63;;;0.50;99.90;;;;;;5093065;28;20037;-79
2021/11/24 03:43:58;;;;;;;8.25;4.15;;;0.50;99.90;;;;;;5093012;28;20388;-79
2021/11/24 03:46:24;;;;;;;8.35;3.97;;;0.70;99.90;;;;;;5074802;28;20505;-79
2021/11/24 03:48:50;;;;;;;6.13;4.40;;;1.30;99.90;;;;;;5074775;28;20020;-79
2021/11/24 03:51:17;;;;;;;7.80;3.67;;;1.50;99.90;;;;;;5074897;28;20387;-79
2021/11/24 03:53:42;;;;;;;8.23;4.45;;;1.60;99.90;;;;;;5077735;28;20031;-79
2021/11/24 03:56:10;;;;;;;5.88;4.10;;;1.50;99.90;;;;;;5078901;28;20495;-79
2021/11/24 03:58:36;;;;;;;9.35;4.65;;;1.30;99.90;;;;;;5078831;28;20028;-79
2021/11/24 04:01:03;;;;;;;6.82;4.22;;;0.60;99.90;;;;;;5078704;28;20101;-80
2021/11/24 04:03:29;;;;;;;8.65;4.90;;;0.50;99.90;;;;;;5078796;28;20110;-79
2021/11/24 04:05:55;;;;;;;8.73;4.43;;;0.50;99.90;;;;;;5078792;28;20123;-79
2021/11/24 04:08:21;;;;;;;7.50;4.13;;;0.30;99.90;;;;;;5078737;28;20030;-79
2021/11/24 04:10:47;;;;;;;6.68;4.13;;;0.30;99.90;;;;;;5096870;28;20471;-80
2021/11/24 04:13:13;;;;;;;5.88;3.75;;;0.30;99.90;;;;;;5078703;28;20020;-79
2021/11/24 04:15:39;;;;;;;10.25;4.38;;;0.10;99.90;;;;;;5096744;28;20033;-79
2021/11/24 04:18:05;;;;;;;7.15;3.90;;;0.00;99.90;;;;;;5096901;28;20032;-79
2021/11/24 04:20:31;;;;;;;6.07;3.80;;;0.40;99.90;;;;;;5078514;28;20047;-79
2021/11/24 04:22:57;;;;;;;5.60;3.72;;;0.50;99.90;;;;;;5078455;28;20024;-79
2021/11/24 04:25:22;;;;;;;10.20;4.13;;;0.50;99.90;;;;;;5078342;28;20504;-79
2021/11/24 04:27:48;;;;;;;7.75;4.70;;;0.50;99.90;;;;;;5078397;28;20349;-79
2021/11/24 04:30:15;;;;;;;9.25;5.30;;;0.30;99.90;;;;;;5078243;28;20340;-79
2021/11/24 04:32:41;;;;;;;14.77;7.85;;;0.60;99.90;;;;;;5096446;28;20020;-79
2021/11/24 04:35:08;;;;;;;13.43;8.10;;;0.80;99.90;;;;;;5078199;28;20395;-79
2021/11/24 04:37:34;;;;;;;11.90;7.40;;;0.50;99.90;;;;;;5096259;28;20040;-79
2021/11/24 04:40:00;;;;;;;11.65;6.35;;;0.30;99.90;;;;;;5096371;28;20360;-79
2021/11/24 04:42:26;;;;;;;9.10;5.97;;;0.30;99.90;;;;;;5078144;28;20073;-79
2021/11/24 04:44:52;;;;;;;9.60;5.13;;;0.60;99.90;;;;;;5078013;28;20032;-79
2021/11/24 04:47:18;;;;;;;7.25;4.82;;;0.30;99.90;;;;;;5077841;28;20112;-79
2021/11/24 04:49:44;;;;;;;9.73;5.13;;;0.50;99.90;;;;;;5078033;28;20542;-79
2021/11/24 04:52:10;;;;;;;7.90;5.03;;;0.40;99.90;;;;;;5096650;28;20024;-79
2021/11/24 04:54:36;;;;;;;6.45;4.18;;;0.70;99.90;;;;;;5077884;28;20031;-79
2021/11/24 04:57:02;;;;;;;5.40;4.25;;;0.90;99.90;;;;;;5077671;28;20032;-79
2021/11/24 04:59:28;;;;;;;8.80;4.50;;;1.00;99.90;;;;;;5095901;28;20024;-79
2021/11/24 05:01:53;;;;;;;6.82;4.28;;;1.00;99.90;;;;;;5077678;28;20390;-79
2021/11/24 05:04:21;;;;;;;8.55;4.72;;;0.80;99.90;;;;;;5095375;28;20555;-79
2021/11/24 05:06:48;;;;;;;7.80;4.80;;;0.50;99.90;;;;;;5077501;28;20052;-79
2021/11/24 05:09:14;;;;;;;8.48;4.70;;;0.80;99.90;;;;;;5095796;28;20075;-79
2021/11/24 05:11:40;;;;;;;11.05;4.82;;;0.70;99.90;;;;;;5077551;28;20032;-79
2021/11/24 05:14:08;;;;;;;8.05;4.47;;;0.70;99.90;;;;;;5077555;28;20107;-79
2021/11/24 05:16:35;;;;;;;13.05;5.30;;;0.30;99.90;;;;;;5095603;28;20107;-79
2021/11/24 05:19:02;;;;;;;6.28;4.38;;;0.30;99.90;;;;;;5095593;28;20502;-79
2021/11/24 05:23:56;;;;;;;9.02;5.18;;;0.40;99.90;;;;;;5095787;28;20043;-79
2021/11/24 05:26:22;;;;;;;8.93;5.10;;;0.20;99.90;;;;;;5095415;28;20031;-79
2021/11/24 05:28:48;;;;;;;10.63;5.43;;;0.30;99.90;;;;;;5095675;28;20352;-79
2021/11/24 05:31:15;;;;;;;7.47;4.55;;;0.40;99.90;;;;;;5077144;28;20027;-79
2021/11/24 05:33:43;;;;;;;8.20;5.00;;;0.70;99.90;;;;;;5077036;28;20065;-79
2021/11/24 05:36:09;;;;;;;9.07;5.90;;;0.40;99.90;;;;;;5076852;28;20564;-79
2021/11/24 05:38:36;;;;;;;10.15;6.18;;;0.10;99.90;;;;;;5095130;28;20387;-79
2021/11/24 05:41:01;;;;;;;11.40;5.13;;;-0.40;99.90;;;;;;5076955;28;20027;-79
2021/11/24 05:43:28;;;;;;;8.52;5.50;;;-0.10;99.90;;;;;;5076875;28;20024;-79
2021/11/24 05:48:21;;;;;;;10.25;6.20;;;-0.10;99.90;;;;;;5094908;28;20043;-80
2021/11/24 05:50:48;;;;;;;10.85;6.30;;;0.10;99.90;;;;;;5094899;28;20095;-79
2021/11/24 05:53:16;;;;;;;12.57;6.22;;;0.00;99.90;;;;;;5076722;28;20025;-79
2021/11/24 05:55:43;;;;;;;9.23;6.47;;;0.40;99.90;;;;;;5094828;28;20028;-79
2021/11/24 05:58:09;;;;;;;8.20;6.18;;;0.00;99.90;;;;;;5094743;28;20429;-79
2021/11/24 06:00:35;;;;;;;11.95;6.53;;;-0.10;99.90;;;;;;5076582;28;20391;-79
2021/11/24 06:03:02;;;;;;;11.52;6.20;;;-0.20;99.90;;;;;;5094965;28;20025;-79
2021/11/24 06:05:27;;;;;;;10.30;6.22;;;-0.30;99.90;;;;;;5076451;28;20109;-79
2021/11/24 06:07:53;;;;;;;11.85;7.05;;;-0.10;99.90;;;;;;5076340;28;20498;-79
2021/11/24 06:10:19;;;;;;;14.98;6.78;;;-0.20;99.90;;;;;;5094491;28;20020;-79
2021/11/24 06:12:45;;;;;;;9.65;6.25;;;-0.10;99.90;;;;;;5076262;28;20023;-79
2021/11/24 06:15:15;;;;;;;14.93;9.70;;;0.10;99.90;;;;;;5094378;28;20016;-79
2021/11/24 06:17:45;;;;;;;20.85;11.32;;;-0.10;99.90;;;;;;5093720;28;20065;-79
2021/11/24 06:20:12;;;;;;;15.25;9.77;;;-0.40;99.90;;;;;;5076190;28;20395;-79
2021/11/24 06:22:39;;;;;;;13.13;8.13;;;0.00;99.90;;;;;;5076182;28;20038;-79
2021/11/24 06:25:07;;;;;;;18.50;7.60;;;0.10;99.90;;;;;;5094226;28;20028;-79
2021/11/24 06:27:32;;;;;;;13.13;8.43;;;0.30;99.90;;;;;;5094398;28;20034;-80
2021/11/24 06:29:58;;;;;;;15.35;9.40;;;0.30;99.90;;;;;;5076040;28;20115;-79
2021/11/24 06:32:24;;;;;;;18.98;9.95;;;0.00;99.90;;;;;;5075973;28;20024;-79
2021/11/24 06:34:50;;;;;;;12.82;7.47;;;-0.30;99.90;;;;;;5075963;28;20044;-79
2021/11/24 06:37:15;;;;;;;15.48;8.00;;;0.00;99.90;;;;;;5075762;28;20122;-79
2021/11/24 06:39:41;;;;;;;12.55;7.50;;;0.10;99.90;;;;;;5094338;28;20048;-79
2021/11/24 06:42:07;;;;;;;10.63;7.47;;;0.30;99.90;;;;;;5075741;28;20028;-79
2021/11/24 06:44:33;;;;;;;10.00;6.75;;;0.30;99.90;;;;;;5075762;28;20031;-79
2021/11/24 06:46:59;;;;;;;11.35;6.95;;;0.60;99.90;;;;;;5093790;28;20099;-79
2021/11/24 06:49:25;;;;;;;10.63;6.38;;;0.70;99.90;;;;;;5075547;28;20077;-79
2021/11/24 06:51:51;;;;;;;10.07;6.60;;;0.70;99.90;;;;;;5075551;28;20105;-79
2021/11/24 06:54:17;;;;;;;10.57;7.18;;;0.70;99.90;;;;;;5075540;28;20024;-79
2021/11/24 06:56:48;;;;;;;12.30;7.10;;;0.70;99.90;;;;;;5075532;28;20447;-79
2021/11/24 06:59:14;;;;;;;12.75;7.57;;;0.40;99.90;;;;;;5058983;28;20118;-79
2021/11/24 07:01:40;;;;;;;14.43;7.57;;;0.60;99.90;;;;;;5093867;28;20100;-79
2021/11/24 07:04:06;;;;;;;14.20;7.35;;;0.70;99.90;;;;;;5075391;28;20518;-79
2021/11/24 07:06:32;;;;;;;11.82;7.80;;;0.50;99.90;;;;;;5075303;28;20145;-79
2021/11/24 07:08:58;;;;;;;12.13;7.88;;;0.20;99.90;;;;;;5075285;28;20387;-79
2021/11/24 07:11:28;;;;;;;14.57;8.15;;;0.20;99.90;;;;;;5075322;28;20020;-79
2021/11/24 07:13:54;;;;;;;14.75;7.82;;;0.10;99.90;;;;;;5075579;28;20027;-79
2021/11/24 07:16:20;;;;;;;13.88;7.40;;;0.30;99.90;;;;;;5075231;28;20069;-79
2021/11/24 07:18:46;;;;;;;11.40;7.20;;;0.40;99.90;;;;;;5093334;28;20106;-79
2021/11/24 07:21:12;;;;;;;10.02;6.75;;;0.30;99.90;;;;;;5075189;28;20078;-79
2021/11/24 07:23:38;;;;;;;10.35;6.80;;;0.70;99.90;;;;;;5093292;28;20364;-79
2021/11/24 07:26:04;;;;;;;10.25;7.32;;;0.90;99.90;;;;;;5075820;28;20027;-79
2021/11/24 07:28:29;;;;;;;10.90;6.85;;;1.30;99.90;;;;;;5092944;28;20024;-79
2021/11/24 07:30:56;;;;;;;16.05;7.25;;;1.70;99.90;;;;;;5075124;28;20035;-79
2021/11/24 07:33:22;;;;;;;13.48;8.18;;;1.60;99.90;;;;;;5093242;28;20028;-79
2021/11/24 07:35:48;;;;;;;13.23;8.25;;;1.10;99.90;;;;;;5074870;28;20139;-79
2021/11/24 07:38:15;;;;;;;14.40;8.30;;;1.00;99.90;;;;;;5093106;28;20063;-79
2021/11/24 07:40:41;;;;;;;11.48;7.63;;;1.10;99.90;;;;;;5074969;28;20036;-81
2021/11/24 07:43:07;;;;;;;14.38;8.35;;;1.40;99.90;;;;;;5092960;28;20039;-80
2021/11/24 07:45:33;;;;;;;10.18;6.40;;;1.80;99.90;;;;;;5074883;28;20601;-79
2021/11/24 07:47:59;;;;;;;13.48;8.48;;;2.10;99.90;;;;;;5092801;28;20091;-82
2021/11/24 07:50:25;;;;;;;12.43;7.30;;;2.40;99.90;;;;;;5074854;28;20020;-82
2021/11/24 07:52:51;;;;;;;24.88;14.25;;;2.50;99.90;;;;;;5093160;28;20028;-82
2021/11/24 07:55:16;;;;;;;12.90;8.68;;;2.70;99.90;;;;;;5092884;28;20069;-82
2021/11/24 07:57:42;;;;;;;16.58;9.23;;;2.50;99.90;;;;;;5074743;28;20028;-81
2021/11/24 08:00:09;;;;;;;13.77;8.85;;;2.50;99.90;;;;;;5074797;28;20031;-82
2021/11/24 08:02:35;;;;;;;14.27;8.98;;;2.70;99.90;;;;;;5074717;28;20225;-82
2021/11/24 08:05:03;;;;;;;19.60;11.88;;;2.60;99.90;;;;;;5074674;28;20119;-82
2021/11/24 08:07:31;;;;;;;20.92;11.63;;;2.70;99.90;;;;;;5092757;28;20369;-82
2021/11/24 08:09:57;;;;;;;27.73;14.23;;;2.50;99.90;;;;;;5074604;28;20024;-82
2021/11/24 08:12:23;;;;;;;18.70;11.85;;;2.30;99.90;;;;;;5074651;28;20036;-82
2021/11/24 08:14:49;;;;;;;22.55;12.82;;;2.10;99.90;;;;;;5074529;28;20016;-82
2021/11/24 08:17:15;;;;;;;21.15;13.40;;;2.50;99.90;;;;;;5074547;28;20103;-82
2021/11/24 08:19:41;;;;;;;24.70;13.93;;;2.80;99.90;;;;;;5074574;28;20024;-82
2021/11/24 08:22:06;;;;;;;21.50;12.10;;;2.50;99.90;;;;;;5092767;28;20055;-82
2021/11/24 08:24:32;;;;;;;18.77;11.85;;;2.20;99.90;;;;;;5074572;28;20123;-83
2021/11/24 08:26:58;;;;;;;21.67;12.57;;;2.10;99.90;;;;;;5074422;28;20437;-82
2021/11/24 08:29:23;;;;;;;17.67;11.73;;;2.00;99.90;;;;;;5092561;28;20095;-82
2021/11/24 08:31:49;;;;;;;24.17;12.93;;;1.90;99.90;;;;;;5074404;28;20027;-82
2021/11/24 08:34:16;;;;;;;19.27;10.95;;;2.00;99.90;;;;;;5074317;28;20024;-82
2021/11/24 08:36:42;;;;;;;21.05;11.75;;;2.30;99.90;;;;;;5057563;28;20084;-82
2021/11/24 08:39:08;;;;;;;21.67;11.55;;;2.60;99.90;;;;;;5074504;28;20033;-82
2021/11/24 08:41:34;;;;;;;19.27;11.40;;;2.90;99.90;;;;;;5078012;28;20073;-83
2021/11/24 08:44:01;;;;;;;20.33;12.23;;;3.10;99.90;;;;;;5078023;28;20115;-81
2021/11/24 08:46:26;;;;;;;22.95;13.23;;;3.00;99.90;;;;;;5077789;28;20036;-83
2021/11/24 08:48:53;;;;;;;20.45;13.40;;;2.80;99.90;;;;;;5096329;28;20028;-81
2021/11/24 08:51:19;;;;;;;21.23;12.63;;;2.90;99.90;;;;;;5077899;28;20504;-83
2021/11/24 08:53:44;;;;;;;20.58;11.65;;;3.10;99.90;;;;;;5096045;28;20025;-83
2021/11/24 08:56:11;;;;;;;17.92;11.45;;;3.10;99.90;;;;;;5077783;28;20058;-83
2021/11/24 08:58:36;;;;;;;28.77;12.38;;;3.20;99.90;;;;;;5077824;28;20055;-82
2021/11/24 09:01:03;;;;;;;19.77;12.50;;;3.10;99.90;;;;;;5077965;28;20525;-82
2021/11/24 09:03:29;;;;;;;27.08;13.05;;;3.30;99.90;;;;;;5077712;28;20024;-83
2021/11/24 09:05:54;;;;;;;22.92;11.93;;;3.30;99.90;;;;;;5077654;28;20035;-82
2021/11/24 09:08:20;;;;;;;19.75;10.82;;;3.70;99.90;;;;;;5077482;28;20024;-83
2021/11/24 09:10:46;;;;;;;17.70;10.60;;;3.90;99.90;;;;;;5077532;28;20387;-82
2021/11/24 09:13:11;;;;;;;15.15;9.57;;;3.90;99.90;;;;;;5077582;28;20020;-83
2021/11/24 09:15:38;;;;;;;17.38;10.85;;;4.00;99.90;;;;;;5077566;28;20020;-82
2021/11/24 09:18:04;;;;;;;16.58;10.50;;;4.10;99.90;;;;;;5095780;28;20048;-84
2021/11/24 09:20:29;;;;;;;17.63;10.68;;;4.20;99.90;;;;;;5077358;28;20047;-82
2021/11/24 09:22:56;;;;;;;20.10;10.95;;;4.20;99.90;;;;;;5077306;28;20025;-84
2021/11/24 09:25:25;;;;;;;22.67;11.15;;;4.20;99.90;;;;;;5095556;28;20028;-83
2021/11/24 09:30:19;;;;;;;22.17;11.82;;;4.60;99.90;;;;;;5095696;28;20077;-83
2021/11/24 09:32:46;;;;;;;21.42;11.25;;;4.80;99.90;;;;;;5077476;28;20050;-84
2021/11/24 09:35:12;;;;;;;20.30;11.88;;;5.10;99.90;;;;;;5095446;28;20020;-85
2021/11/24 09:37:38;;;;;;;15.98;10.23;;;5.20;99.90;;;;;;5076732;28;20090;-85
2021/11/24 09:40:05;;;;;;;18.67;10.82;;;5.20;99.90;;;;;;5077100;28;20032;-83
2021/11/24 09:42:34;;;;;;;19.80;11.02;;;5.30;99.90;;;;;;5077004;28;20024;-84
2021/11/24 09:45:01;;;;;;;21.65;11.77;;;5.20;99.90;;;;;;5076963;28;20027;-85
2021/11/24 09:47:27;;;;;;;15.45;9.82;;;5.30;99.90;;;;;;5076700;28;20020;-85
2021/11/24 09:49:57;;;;;;;17.50;10.32;;;5.50;99.90;;;;;;5077241;28;20032;-85
2021/11/24 09:52:24;;;;;;;17.20;11.38;;;5.80;99.90;;;;;;5095291;28;20020;-85
2021/11/24 09:54:50;;;;;;;16.33;10.27;;;5.80;99.90;;;;;;5076805;28;20028;-86
2021/11/24 09:57:18;;;;;;;18.02;11.30;;;5.90;99.90;;;;;;5094867;28;20393;-85
2021/11/24 09:59:44;;;;;;;16.83;11.68;;;5.80;99.90;;;;;;5076684;28;20168;-85
2021/11/24 10:02:13;;;;;;;19.55;11.70;;;5.90;99.90;;;;;;5076548;28;20035;-86
2021/11/24 10:04:44;;;;;;;21.90;12.20;;;6.10;99.90;;;;;;5076764;28;20031;-85
2021/11/24 10:07:11;;;;;;;18.05;12.73;;;5.80;99.90;;;;;;5076472;28;20509;-85
2021/11/24 10:09:38;;;;;;;19.85;12.13;;;6.00;99.90;;;;;;5094652;28;20491;-85
2021/11/24 10:12:04;;;;;;;20.25;12.98;;;5.90;99.90;;;;;;5076545;28;20391;-86
2021/11/24 10:14:30;;;;;;;22.85;13.05;;;6.00;99.90;;;;;;5076646;28;20016;-84
2021/11/24 10:17:13;;;;;;;19.10;11.60;;;5.80;99.90;;;;;;5076423;28;20027;-82
2021/11/24 10:19:39;;;;;;;20.33;12.35;;;5.80;99.90;;;;;;5094820;28;20028;-81
2021/11/24 10:22:14;;;;;;;21.90;11.32;;;6.10;99.90;;;;;;5094363;28;20398;-81
2021/11/24 10:24:43;;;;;;;23.42;12.90;;;5.90;99.90;;;;;;5076161;28;20081;-81
2021/11/24 10:27:13;;;;;;;18.98;12.30;;;5.60;99.90;;;;;;5076117;28;20131;-80
2021/11/24 10:29:51;;;;;;;21.83;12.88;;;5.50;99.90;;;;;;5076043;28;20020;-80
2021/11/24 10:32:17;;;;;;;19.92;12.95;;;5.20;99.90;;;;;;5076021;28;20058;-80
2021/11/24 10:34:43;;;;;;;16.13;11.60;;;5.00;99.90;;;;;;5075931;28;20063;-80
2021/11/24 10:37:21;;;;;;;18.30;11.70;;;4.90;99.90;;;;;;5075709;28;20055;-80
2021/11/24 10:39:51;;;;;;;23.05;12.98;;;5.00;99.90;;;;;;5075912;28;20028;-80
2021/11/24 10:42:24;;;;;;;19.20;12.75;;;5.00;99.90;;;;;;5093976;28;20028;-80
2021/11/24 10:45:06;;;;;;;19.25;12.88;;;4.90;99.90;;;;;;5075856;28;20028;-80
2021/11/24 10:47:33;;;;;;;21.15;12.82;;;5.00;99.90;;;;;;5075605;28;20024;-80
2021/11/24 10:50:01;;;;;;;18.63;13.02;;;5.00;99.90;;;;;;5093828;28;20024;-80
2021/11/24 10:52:38;;;;;;;23.48;14.90;;;5.10;99.90;;;;;;5075517;28;20020;-80
2021/11/24 10:55:11;;;;;;;22.23;14.73;;;5.30;99.90;;;;;;5093856;28;20016;-80
2021/11/24 10:57:42;;;;;;;24.87;14.33;;;5.40;99.90;;;;;;5093708;28;20148;-80
2021/11/24 11:00:15;;;;;;;17.92;12.68;;;5.70;99.90;;;;;;5075462;28;20361;-80
2021/11/24 11:02:46;;;;;;;20.75;13.40;;;5.50;99.90;;;;;;5074888;28;20055;-81
2021/11/24 11:05:18;;;;;;;22.58;13.95;;;5.40;99.90;;;;;;5075378;28;20050;-80
2021/11/24 11:07:49;;;;;;;25.55;15.05;;;5.30;99.90;;;;;;5075340;28;20032;-81
2021/11/24 11:10:24;;;;;;;23.17;15.05;;;5.00;99.90;;;;;;5075446;28;20082;-80
2021/11/24 11:13:04;;;;;;;19.15;12.93;;;4.80;99.90;;;;;;5093570;28;20035;-80
2021/11/24 11:15:39;;;;;;;24.05;14.43;;;4.70;99.90;;;;;;5093573;28;20016;-80
2021/11/24 11:18:26;;;;;;;22.27;13.30;;;4.80;99.90;;;;;;5075299;28;20035;-80
2021/11/24 11:20:57;;;;;;;24.45;15.18;;;4.90;99.90;;;;;;5093456;28;20016;-80
2021/11/24 11:23:32;;;;;;;25.30;13.93;;;4.80;99.90;;;;;;5093448;28;20368;-80
2021/11/24 11:26:07;;;;;;;22.20;14.27;;;4.70;99.90;;;;;;5075226;28;20028;-81
2021/11/24 11:28:36;;;;;;;22.38;13.95;;;4.60;99.90;;;;;;5075142;28;20119;-81
2021/11/24 11:31:03;;;;;;;27.73;15.90;;;4.50;99.90;;;;;;5075130;28;20030;-80
2021/11/24 11:33:32;;;;;;;21.20;13.00;;;5.10;99.90;;;;;;5075200;28;20054;-80
2021/11/24 11:36:08;;;;;;;21.60;14.25;;;5.10;99.90;;;;;;5058521;28;20024;-80
2021/11/24 11:38:36;;;;;;;32.00;17.60;;;5.10;99.90;;;;;;5075068;28;20023;-81
2021/11/24 11:41:04;;;;;;;20.85;13.35;;;5.30;99.90;;;;;;5075100;28;20091;-82
2021/11/24 11:43:30;;;;;;;22.02;14.70;;;5.50;99.90;;;;;;5075043;28;20386;-81
2021/11/24 11:45:57;;;;;;;18.77;12.70;;;5.30;99.90;;;;;;5074934;28;20107;-82
2021/11/24 11:48:31;;;;;;;22.70;14.82;;;5.30;99.90;;;;;;5074808;28;20112;-81
2021/11/24 11:51:02;;;;;;;19.98;13.43;;;5.40;99.90;;;;;;5074896;28;20440;-82
2021/11/24 11:53:35;;;;;;;17.73;11.88;;;6.50;99.90;;;;;;5074839;28;20027;-81
2021/11/24 11:56:18;;;;;;;21.67;13.85;;;7.50;99.90;;;;;;5074818;28;20024;-82
2021/11/24 11:58:48;;;;;;;35.38;19.70;;;7.90;99.90;;;;;;5092964;28;20055;-81
2021/11/24 12:01:17;;;;;;;36.97;20.13;;;7.30;99.90;;;;;;5074777;28;20060;-81
2021/11/24 12:04:09;;;;;;;40.47;21.63;;;7.20;99.90;;;;;;5092874;28;20077;-82
2021/11/24 12:06:35;;;;;;;31.85;18.33;;;7.20;99.90;;;;;;5074644;28;20031;-80
2021/11/24 12:09:07;;;;;;;25.30;16.05;;;7.30;99.90;;;;;;5074720;28;20491;-81
2021/11/24 12:12:10;;;;;;;22.52;13.73;;;8.00;99.90;;;;;;5074678;28;20494;-79
2021/11/24 12:14:41;;;;;;;18.52;12.13;;;8.90;99.90;;;;;;5077405;28;20405;-80
2021/11/24 12:17:42;;;;;;;18.08;11.75;;;10.30;99.90;;;;;;5078582;28;20429;-77
2021/11/24 12:20:18;;;;;;;17.58;11.90;;;11.20;99.90;;;;;;5064453;28;20399;-79
2021/11/24 12:22:50;;;;;;;19.65;12.05;;;11.60;99.90;;;;;;5096996;28;20024;-79
2021/11/24 12:27:51;;;;;;;16.63;11.43;;;12.00;99.90;;;;;;5096713;28;20074;-79
2021/11/24 12:30:46;;;;;;;18.30;11.48;;;12.70;99.90;;;;;;5078448;28;20020;-79
2021/11/24 12:33:21;;;;;;;17.67;12.38;;;13.00;99.90;;;;;;5096700;28;20052;-81
2021/11/24 12:35:59;;;;;;;22.88;13.60;;;13.00;99.90;;;;;;5096620;28;20026;-80
2021/11/24 12:38:26;;;;;;;18.27;12.80;;;12.60;99.90;;;;;;5078254;28;20518;-79
2021/11/24 12:40:55;;;;;;;17.30;12.27;;;13.00;99.80;;;;;;5078215;28;20020;-79
2021/11/24 12:43:24;;;;;;;18.95;12.63;;;13.00;99.10;;;;;;5096346;28;20048;-79
2021/11/24 12:46:12;;;;;;;18.00;11.65;;;13.40;98.20;;;;;;5096324;28;20024;-79
2021/11/24 12:48:57;;;;;;;18.52;12.32;;;13.30;97.40;;;;;;5078009;28;20052;-79
2021/11/24 12:51:37;;;;;;;17.60;11.88;;;13.30;97.20;;;;;;5078028;28;20044;-79
2021/11/24 12:54:12;;;;;;;15.68;11.20;;;13.40;96.80;;;;;;5078010;28;20153;-79
2021/11/24 12:56:49;;;;;;;16.42;11.60;;;13.50;96.40;;;;;;5077980;28;20078;-79
2021/11/24 12:59:19;;;;;;;15.82;11.13;;;13.40;96.20;;;;;;5078146;28;20028;-79